sensor_id;sensor_type;location;lat;lon;timestamp;P1;durP1;ratioP1;P2;durP2;ratioP2
5847;SDS011;8756;49.29324300;8.70599800;2022-11-20T00:01:05;29.27;;;14.67;;
5847;SDS011;8756;49.29324300;8.70599800;2022-11-20T00:03:48;26.70;;;14.23;;
5847;SDS011;8756;49.29324300;8.70599800;2022-11-20T00:06:18;26.73;;;14.57;;
5847;SDS011;8756;49.29324300;8.70599800;2022-11-20T00:08:45;26.77;;;13.80;;
5847;SDS011;8756;49.29324300;8.70599800;2022-11-20T00:11:15;25.03;;;13.83;;
5847;SDS011;8756;49.29324300;8.70599800;2022-11-20T00:13:43;28.50;;;14.23;;
5847;SDS011;8756;49.29324300;8.70599800;2022-11-20T00:16:12;26.07;;;14.40;;
5847;SDS011;8756;49.29324300;8.70599800;2022-11-20T00:18:40;27.60;;;14.57;;
5847;SDS011;8756;49.29324300;8.70599800;2022-11-20T00:21:09;26.60;;;14.43;;
5847;SDS011;8756;49.29324300;8.70599800;2022-11-20T00:23:43;25.43;;;14.47;;
5847;SDS011;8756;49.29324300;8.70599800;2022-11-20T00:26:11;24.67;;;13.07;;
5847;SDS011;8756;49.29324300;8.70599800;2022-11-20T00:28:42;27.30;;;14.70;;
5847;SDS011;8756;49.29324300;8.70599800;2022-11-20T00:33:37;26.53;;;14.20;;
5847;SDS011;8756;49.29324300;8.70599800;2022-11-20T00:36:05;26.70;;;14.40;;
5847;SDS011;8756;49.29324300;8.70599800;2022-11-20T00:38:36;25.10;;;14.30;;
5847;SDS011;8756;49.29324300;8.70599800;2022-11-20T00:41:03;29.30;;;14.00;;
5847;SDS011;8756;49.29324300;8.70599800;2022-11-20T00:43:31;26.30;;;14.17;;
5847;SDS011;8756;49.29324300;8.70599800;2022-11-20T00:45:57;25.70;;;12.80;;
5847;SDS011;8756;49.29324300;8.70599800;2022-11-20T00:48:30;24.80;;;12.53;;
5847;SDS011;8756;49.29324300;8.70599800;2022-11-20T00:50:57;25.57;;;13.50;;
5847;SDS011;8756;49.29324300;8.70599800;2022-11-20T00:53:23;28.67;;;13.27;;
5847;SDS011;8756;49.29324300;8.70599800;2022-11-20T00:55:59;25.90;;;13.70;;
5847;SDS011;8756;49.29324300;8.70599800;2022-11-20T00:58:32;25.00;;;14.67;;
5847;SDS011;8756;49.29324300;8.70599800;2022-11-20T01:01:05;25.77;;;13.90;;
5847;SDS011;8756;49.29324300;8.70599800;2022-11-20T01:03:34;27.50;;;14.77;;
5847;SDS011;8756;49.29324300;8.70599800;2022-11-20T01:06:06;28.43;;;14.70;;
5847;SDS011;8756;49.29324300;8.70599800;2022-11-20T01:08:36;26.03;;;14.43;;
5847;SDS011;8756;49.29324300;8.70599800;2022-11-20T01:11:04;24.77;;;14.20;;
5847;SDS011;8756;49.29324300;8.70599800;2022-11-20T01:13:39;28.33;;;14.50;;
5847;SDS011;8756;49.29324300;8.70599800;2022-11-20T01:16:10;25.40;;;12.97;;
5847;SDS011;8756;49.29324300;8.70599800;2022-11-20T01:18:47;28.43;;;15.00;;
5847;SDS011;8756;49.29324300;8.70599800;2022-11-20T01:21:18;24.97;;;13.90;;
5847;SDS011;8756;49.29324300;8.70599800;2022-11-20T01:23:47;23.07;;;12.87;;
5847;SDS011;8756;49.29324300;8.70599800;2022-11-20T01:26:15;26.67;;;14.07;;
5847;SDS011;8756;49.29324300;8.70599800;2022-11-20T01:28:44;28.10;;;13.97;;
5847;SDS011;8756;49.29324300;8.70599800;2022-11-20T01:31:13;28.83;;;14.90;;
5847;SDS011;8756;49.29324300;8.70599800;2022-11-20T01:33:46;30.00;;;15.00;;
5847;SDS011;8756;49.29324300;8.70599800;2022-11-20T01:36:14;30.40;;;16.63;;
5847;SDS011;8756;49.29324300;8.70599800;2022-11-20T01:38:42;30.43;;;15.77;;
5847;SDS011;8756;49.29324300;8.70599800;2022-11-20T01:41:08;31.20;;;16.53;;
5847;SDS011;8756;49.29324300;8.70599800;2022-11-20T01:43:56;26.63;;;14.73;;
5847;SDS011;8756;49.29324300;8.70599800;2022-11-20T01:46:21;27.30;;;14.17;;
5847;SDS011;8756;49.29324300;8.70599800;2022-11-20T01:48:54;26.33;;;13.77;;
5847;SDS011;8756;49.29324300;8.70599800;2022-11-20T01:53:59;28.87;;;15.03;;
5847;SDS011;8756;49.29324300;8.70599800;2022-11-20T01:56:29;27.00;;;13.83;;
5847;SDS011;8756;49.29324300;8.70599800;2022-11-20T01:58:59;29.03;;;16.43;;
5847;SDS011;8756;49.29324300;8.70599800;2022-11-20T02:01:27;29.17;;;15.57;;
5847;SDS011;8756;49.29324300;8.70599800;2022-11-20T02:03:53;31.07;;;17.03;;
5847;SDS011;8756;49.29324300;8.70599800;2022-11-20T02:06:20;32.70;;;15.80;;
5847;SDS011;8756;49.29324300;8.70599800;2022-11-20T02:08:51;31.13;;;15.97;;
5847;SDS011;8756;49.29324300;8.70599800;2022-11-20T02:11:17;33.60;;;16.73;;
5847;SDS011;8756;49.29324300;8.70599800;2022-11-20T02:13:44;27.73;;;14.30;;
5847;SDS011;8756;49.29324300;8.70599800;2022-11-20T02:16:11;32.30;;;16.97;;
5847;SDS011;8756;49.29324300;8.70599800;2022-11-20T02:18:49;30.37;;;16.10;;
5847;SDS011;8756;49.29324300;8.70599800;2022-11-20T02:24:10;37.30;;;16.37;;
5847;SDS011;8756;49.29324300;8.70599800;2022-11-20T02:29:15;31.30;;;16.13;;
5847;SDS011;8756;49.29324300;8.70599800;2022-11-20T02:31:49;34.83;;;16.73;;
5847;SDS011;8756;49.29324300;8.70599800;2022-11-20T02:34:16;32.97;;;16.10;;
5847;SDS011;8756;49.29324300;8.70599800;2022-11-20T02:36:42;39.53;;;18.70;;
5847;SDS011;8756;49.29324300;8.70599800;2022-11-20T02:39:09;36.20;;;17.90;;
5847;SDS011;8756;49.29324300;8.70599800;2022-11-20T02:41:37;37.30;;;18.10;;
5847;SDS011;8756;49.29324300;8.70599800;2022-11-20T02:44:03;37.07;;;16.87;;
5847;SDS011;8756;49.29324300;8.70599800;2022-11-20T02:46:30;31.73;;;16.10;;
5847;SDS011;8756;49.29324300;8.70599800;2022-11-20T02:48:57;32.83;;;17.70;;
5847;SDS011;8756;49.29324300;8.70599800;2022-11-20T02:51:23;39.07;;;18.17;;
5847;SDS011;8756;49.29324300;8.70599800;2022-11-20T02:53:49;39.70;;;19.70;;
5847;SDS011;8756;49.29324300;8.70599800;2022-11-20T02:56:15;43.87;;;20.77;;
5847;SDS011;8756;49.29324300;8.70599800;2022-11-20T02:58:41;42.03;;;20.60;;
5847;SDS011;8756;49.29324300;8.70599800;2022-11-20T03:01:07;40.20;;;19.77;;
5847;SDS011;8756;49.29324300;8.70599800;2022-11-20T03:03:32;37.17;;;17.83;;
5847;SDS011;8756;49.29324300;8.70599800;2022-11-20T03:05:59;35.43;;;17.10;;
5847;SDS011;8756;49.29324300;8.70599800;2022-11-20T03:08:25;38.30;;;18.57;;
5847;SDS011;8756;49.29324300;8.70599800;2022-11-20T03:10:51;35.53;;;17.77;;
5847;SDS011;8756;49.29324300;8.70599800;2022-11-20T03:13:16;39.90;;;19.50;;
5847;SDS011;8756;49.29324300;8.70599800;2022-11-20T03:15:42;44.77;;;21.57;;
5847;SDS011;8756;49.29324300;8.70599800;2022-11-20T03:18:08;42.03;;;19.90;;
5847;SDS011;8756;49.29324300;8.70599800;2022-11-20T03:20:33;42.80;;;20.57;;
5847;SDS011;8756;49.29324300;8.70599800;2022-11-20T03:22:59;37.80;;;20.13;;
5847;SDS011;8756;49.29324300;8.70599800;2022-11-20T03:25:26;39.80;;;19.33;;
5847;SDS011;8756;49.29324300;8.70599800;2022-11-20T03:27:52;40.93;;;18.70;;
5847;SDS011;8756;49.29324300;8.70599800;2022-11-20T03:30:18;56.07;;;20.57;;
5847;SDS011;8756;49.29324300;8.70599800;2022-11-20T03:32:44;41.97;;;18.93;;
5847;SDS011;8756;49.29324300;8.70599800;2022-11-20T03:35:10;39.67;;;21.90;;
5847;SDS011;8756;49.29324300;8.70599800;2022-11-20T03:37:36;42.10;;;19.30;;
5847;SDS011;8756;49.29324300;8.70599800;2022-11-20T03:40:02;46.83;;;21.10;;
5847;SDS011;8756;49.29324300;8.70599800;2022-11-20T03:42:29;37.40;;;19.50;;
5847;SDS011;8756;49.29324300;8.70599800;2022-11-20T03:45:13;47.00;;;21.60;;
5847;SDS011;8756;49.29324300;8.70599800;2022-11-20T03:47:43;44.37;;;20.37;;
5847;SDS011;8756;49.29324300;8.70599800;2022-11-20T03:50:10;45.17;;;20.23;;
5847;SDS011;8756;49.29324300;8.70599800;2022-11-20T03:52:38;48.37;;;21.43;;
5847;SDS011;8756;49.29324300;8.70599800;2022-11-20T03:55:05;48.43;;;20.87;;
5847;SDS011;8756;49.29324300;8.70599800;2022-11-20T03:57:32;41.23;;;18.30;;
5847;SDS011;8756;49.29324300;8.70599800;2022-11-20T03:59:57;51.23;;;21.03;;
5847;SDS011;8756;49.29324300;8.70599800;2022-11-20T04:02:23;41.43;;;18.80;;
5847;SDS011;8756;49.29324300;8.70599800;2022-11-20T04:04:49;39.77;;;18.90;;
5847;SDS011;8756;49.29324300;8.70599800;2022-11-20T04:07:14;42.10;;;18.70;;
5847;SDS011;8756;49.29324300;8.70599800;2022-11-20T04:09:40;39.80;;;19.80;;
5847;SDS011;8756;49.29324300;8.70599800;2022-11-20T04:12:06;41.73;;;20.07;;
5847;SDS011;8756;49.29324300;8.70599800;2022-11-20T04:14:31;45.23;;;19.77;;
5847;SDS011;8756;49.29324300;8.70599800;2022-11-20T04:16:57;38.90;;;19.00;;
5847;SDS011;8756;49.29324300;8.70599800;2022-11-20T04:19:22;36.60;;;18.60;;
5847;SDS011;8756;49.29324300;8.70599800;2022-11-20T04:21:48;35.97;;;18.60;;
5847;SDS011;8756;49.29324300;8.70599800;2022-11-20T04:24:14;39.33;;;18.90;;
5847;SDS011;8756;49.29324300;8.70599800;2022-11-20T04:26:40;43.10;;;20.90;;
5847;SDS011;8756;49.29324300;8.70599800;2022-11-20T04:29:06;40.67;;;19.40;;
5847;SDS011;8756;49.29324300;8.70599800;2022-11-20T04:31:32;41.37;;;19.90;;
5847;SDS011;8756;49.29324300;8.70599800;2022-11-20T04:34:00;37.43;;;16.83;;
5847;SDS011;8756;49.29324300;8.70599800;2022-11-20T04:36:30;33.63;;;16.87;;
5847;SDS011;8756;49.29324300;8.70599800;2022-11-20T04:38:57;33.90;;;16.80;;
5847;SDS011;8756;49.29324300;8.70599800;2022-11-20T04:41:27;40.30;;;16.93;;
5847;SDS011;8756;49.29324300;8.70599800;2022-11-20T04:43:57;37.70;;;18.87;;
5847;SDS011;8756;49.29324300;8.70599800;2022-11-20T04:46:27;37.27;;;17.53;;
5847;SDS011;8756;49.29324300;8.70599800;2022-11-20T04:48:54;34.57;;;18.03;;
5847;SDS011;8756;49.29324300;8.70599800;2022-11-20T04:51:20;31.57;;;16.07;;
5847;SDS011;8756;49.29324300;8.70599800;2022-11-20T04:53:46;42.03;;;20.10;;
5847;SDS011;8756;49.29324300;8.70599800;2022-11-20T04:56:12;40.20;;;18.00;;
5847;SDS011;8756;49.29324300;8.70599800;2022-11-20T04:58:39;37.80;;;17.37;;
5847;SDS011;8756;49.29324300;8.70599800;2022-11-20T05:01:06;37.60;;;17.80;;
5847;SDS011;8756;49.29324300;8.70599800;2022-11-20T05:03:38;40.20;;;18.30;;
5847;SDS011;8756;49.29324300;8.70599800;2022-11-20T05:06:05;35.37;;;16.13;;
5847;SDS011;8756;49.29324300;8.70599800;2022-11-20T05:08:32;38.77;;;17.90;;
5847;SDS011;8756;49.29324300;8.70599800;2022-11-20T05:11:06;38.07;;;19.20;;
5847;SDS011;8756;49.29324300;8.70599800;2022-11-20T05:13:37;34.30;;;17.70;;
5847;SDS011;8756;49.29324300;8.70599800;2022-11-20T05:16:04;37.50;;;17.53;;
5847;SDS011;8756;49.29324300;8.70599800;2022-11-20T05:18:33;39.53;;;20.50;;
5847;SDS011;8756;49.29324300;8.70599800;2022-11-20T05:21:00;72.93;;;37.37;;
5847;SDS011;8756;49.29324300;8.70599800;2022-11-20T05:23:26;54.37;;;30.40;;
5847;SDS011;8756;49.29324300;8.70599800;2022-11-20T05:25:53;62.53;;;31.80;;
5847;SDS011;8756;49.29324300;8.70599800;2022-11-20T05:28:20;46.40;;;22.10;;
5847;SDS011;8756;49.29324300;8.70599800;2022-11-20T05:30:46;38.13;;;18.53;;
5847;SDS011;8756;49.29324300;8.70599800;2022-11-20T05:33:13;38.17;;;19.30;;
5847;SDS011;8756;49.29324300;8.70599800;2022-11-20T05:35:39;37.63;;;19.43;;
5847;SDS011;8756;49.29324300;8.70599800;2022-11-20T05:38:05;40.00;;;18.67;;
5847;SDS011;8756;49.29324300;8.70599800;2022-11-20T05:40:30;37.83;;;17.33;;
5847;SDS011;8756;49.29324300;8.70599800;2022-11-20T05:42:56;34.93;;;19.00;;
5847;SDS011;8756;49.29324300;8.70599800;2022-11-20T05:45:22;39.43;;;18.30;;
5847;SDS011;8756;49.29324300;8.70599800;2022-11-20T05:47:47;42.10;;;18.37;;
5847;SDS011;8756;49.29324300;8.70599800;2022-11-20T05:50:13;37.53;;;17.23;;
5847;SDS011;8756;49.29324300;8.70599800;2022-11-20T05:52:39;39.20;;;19.17;;
5847;SDS011;8756;49.29324300;8.70599800;2022-11-20T05:55:06;39.20;;;18.87;;
5847;SDS011;8756;49.29324300;8.70599800;2022-11-20T05:57:32;39.30;;;18.07;;
5847;SDS011;8756;49.29324300;8.70599800;2022-11-20T05:59:58;38.70;;;18.43;;
5847;SDS011;8756;49.29324300;8.70599800;2022-11-20T06:02:24;33.90;;;18.40;;
5847;SDS011;8756;49.29324300;8.70599800;2022-11-20T06:04:50;37.20;;;18.80;;
5847;SDS011;8756;49.29324300;8.70599800;2022-11-20T06:07:15;46.17;;;19.60;;
5847;SDS011;8756;49.29324300;8.70599800;2022-11-20T06:09:41;42.20;;;18.33;;
5847;SDS011;8756;49.29324300;8.70599800;2022-11-20T06:12:06;36.77;;;18.43;;
5847;SDS011;8756;49.29324300;8.70599800;2022-11-20T06:14:32;38.13;;;18.10;;
5847;SDS011;8756;49.29324300;8.70599800;2022-11-20T06:16:58;35.47;;;15.73;;
5847;SDS011;8756;49.29324300;8.70599800;2022-11-20T06:19:24;40.57;;;18.80;;
5847;SDS011;8756;49.29324300;8.70599800;2022-11-20T06:21:50;38.87;;;17.23;;
5847;SDS011;8756;49.29324300;8.70599800;2022-11-20T06:24:16;39.03;;;17.77;;
5847;SDS011;8756;49.29324300;8.70599800;2022-11-20T06:26:42;38.03;;;16.97;;
5847;SDS011;8756;49.29324300;8.70599800;2022-11-20T06:29:08;37.77;;;15.80;;
5847;SDS011;8756;49.29324300;8.70599800;2022-11-20T06:31:34;34.53;;;14.80;;
5847;SDS011;8756;49.29324300;8.70599800;2022-11-20T06:34:03;34.47;;;17.10;;
5847;SDS011;8756;49.29324300;8.70599800;2022-11-20T06:36:31;38.53;;;17.47;;
5847;SDS011;8756;49.29324300;8.70599800;2022-11-20T06:38:58;39.47;;;17.27;;
5847;SDS011;8756;49.29324300;8.70599800;2022-11-20T06:41:24;37.17;;;16.73;;
5847;SDS011;8756;49.29324300;8.70599800;2022-11-20T06:43:50;48.77;;;17.87;;
5847;SDS011;8756;49.29324300;8.70599800;2022-11-20T06:46:17;46.47;;;17.73;;
5847;SDS011;8756;49.29324300;8.70599800;2022-11-20T06:48:45;33.83;;;16.17;;
5847;SDS011;8756;49.29324300;8.70599800;2022-11-20T06:51:15;32.97;;;15.13;;
5847;SDS011;8756;49.29324300;8.70599800;2022-11-20T06:53:41;35.63;;;17.47;;
5847;SDS011;8756;49.29324300;8.70599800;2022-11-20T06:56:07;31.90;;;16.60;;
5847;SDS011;8756;49.29324300;8.70599800;2022-11-20T06:58:33;43.37;;;20.20;;
5847;SDS011;8756;49.29324300;8.70599800;2022-11-20T07:01:00;41.43;;;20.13;;
5847;SDS011;8756;49.29324300;8.70599800;2022-11-20T07:03:45;40.80;;;18.90;;
5847;SDS011;8756;49.29324300;8.70599800;2022-11-20T07:06:13;35.80;;;17.00;;
5847;SDS011;8756;49.29324300;8.70599800;2022-11-20T07:08:39;33.63;;;17.27;;
5847;SDS011;8756;49.29324300;8.70599800;2022-11-20T07:11:06;36.73;;;16.93;;
5847;SDS011;8756;49.29324300;8.70599800;2022-11-20T07:13:33;32.03;;;16.10;;
5847;SDS011;8756;49.29324300;8.70599800;2022-11-20T07:15:59;34.67;;;17.03;;
5847;SDS011;8756;49.29324300;8.70599800;2022-11-20T07:18:28;31.90;;;14.33;;
5847;SDS011;8756;49.29324300;8.70599800;2022-11-20T07:20:53;33.10;;;13.33;;
5847;SDS011;8756;49.29324300;8.70599800;2022-11-20T07:23:19;27.37;;;14.17;;
5847;SDS011;8756;49.29324300;8.70599800;2022-11-20T07:25:45;25.90;;;12.87;;
5847;SDS011;8756;49.29324300;8.70599800;2022-11-20T07:28:11;29.07;;;13.90;;
5847;SDS011;8756;49.29324300;8.70599800;2022-11-20T07:30:36;25.83;;;14.10;;
5847;SDS011;8756;49.29324300;8.70599800;2022-11-20T07:33:02;29.03;;;12.20;;
5847;SDS011;8756;49.29324300;8.70599800;2022-11-20T07:35:28;25.33;;;12.50;;
5847;SDS011;8756;49.29324300;8.70599800;2022-11-20T07:37:54;23.00;;;11.10;;
5847;SDS011;8756;49.29324300;8.70599800;2022-11-20T07:40:19;24.13;;;12.07;;
5847;SDS011;8756;49.29324300;8.70599800;2022-11-20T07:42:49;21.60;;;11.60;;
5847;SDS011;8756;49.29324300;8.70599800;2022-11-20T07:45:17;27.80;;;12.03;;
5847;SDS011;8756;49.29324300;8.70599800;2022-11-20T07:47:44;22.67;;;11.10;;
5847;SDS011;8756;49.29324300;8.70599800;2022-11-20T07:50:10;21.20;;;10.90;;
5847;SDS011;8756;49.29324300;8.70599800;2022-11-20T07:52:36;22.27;;;9.70;;
5847;SDS011;8756;49.29324300;8.70599800;2022-11-20T07:55:02;25.27;;;11.03;;
5847;SDS011;8756;49.29324300;8.70599800;2022-11-20T07:57:28;20.87;;;10.20;;
5847;SDS011;8756;49.29324300;8.70599800;2022-11-20T07:59:54;23.13;;;10.47;;
5847;SDS011;8756;49.29324300;8.70599800;2022-11-20T08:02:19;18.77;;;10.53;;
5847;SDS011;8756;49.29324300;8.70599800;2022-11-20T08:04:45;22.00;;;10.37;;
5847;SDS011;8756;49.29324300;8.70599800;2022-11-20T08:07:11;18.27;;;10.40;;
5847;SDS011;8756;49.29324300;8.70599800;2022-11-20T08:09:36;18.70;;;8.90;;
5847;SDS011;8756;49.29324300;8.70599800;2022-11-20T08:12:02;23.40;;;11.13;;
5847;SDS011;8756;49.29324300;8.70599800;2022-11-20T08:14:46;20.57;;;10.00;;
5847;SDS011;8756;49.29324300;8.70599800;2022-11-20T08:17:12;18.83;;;10.50;;
5847;SDS011;8756;49.29324300;8.70599800;2022-11-20T08:19:37;20.37;;;11.10;;
5847;SDS011;8756;49.29324300;8.70599800;2022-11-20T08:22:03;18.87;;;10.73;;
5847;SDS011;8756;49.29324300;8.70599800;2022-11-20T08:24:29;21.47;;;10.80;;
5847;SDS011;8756;49.29324300;8.70599800;2022-11-20T08:26:57;25.03;;;11.90;;
5847;SDS011;8756;49.29324300;8.70599800;2022-11-20T08:29:26;22.00;;;10.70;;
5847;SDS011;8756;49.29324300;8.70599800;2022-11-20T08:31:52;22.43;;;11.37;;
5847;SDS011;8756;49.29324300;8.70599800;2022-11-20T08:34:18;18.33;;;9.70;;
5847;SDS011;8756;49.29324300;8.70599800;2022-11-20T08:36:43;18.83;;;10.37;;
5847;SDS011;8756;49.29324300;8.70599800;2022-11-20T08:39:12;17.83;;;10.73;;
5847;SDS011;8756;49.29324300;8.70599800;2022-11-20T08:41:39;17.60;;;8.77;;
5847;SDS011;8756;49.29324300;8.70599800;2022-11-20T08:44:05;21.90;;;10.60;;
5847;SDS011;8756;49.29324300;8.70599800;2022-11-20T08:46:34;20.20;;;10.90;;
5847;SDS011;8756;49.29324300;8.70599800;2022-11-20T08:49:06;22.50;;;10.00;;
5847;SDS011;8756;49.29324300;8.70599800;2022-11-20T08:51:36;20.00;;;9.47;;
5847;SDS011;8756;49.29324300;8.70599800;2022-11-20T08:54:02;21.30;;;10.03;;
5847;SDS011;8756;49.29324300;8.70599800;2022-11-20T08:56:29;18.57;;;10.07;;
5847;SDS011;8756;49.29324300;8.70599800;2022-11-20T08:58:55;19.63;;;10.43;;
5847;SDS011;8756;49.29324300;8.70599800;2022-11-20T09:01:22;17.47;;;9.57;;
5847;SDS011;8756;49.29324300;8.70599800;2022-11-20T09:03:48;19.97;;;10.00;;
5847;SDS011;8756;49.29324300;8.70599800;2022-11-20T09:06:14;19.63;;;10.00;;
5847;SDS011;8756;49.29324300;8.70599800;2022-11-20T09:08:41;17.73;;;9.30;;
5847;SDS011;8756;49.29324300;8.70599800;2022-11-20T09:11:07;22.60;;;10.87;;
5847;SDS011;8756;49.29324300;8.70599800;2022-11-20T09:13:34;18.90;;;10.87;;
5847;SDS011;8756;49.29324300;8.70599800;2022-11-20T09:16:01;18.53;;;8.90;;
5847;SDS011;8756;49.29324300;8.70599800;2022-11-20T09:18:31;20.63;;;10.03;;
5847;SDS011;8756;49.29324300;8.70599800;2022-11-20T09:20:59;18.80;;;10.30;;
5847;SDS011;8756;49.29324300;8.70599800;2022-11-20T09:23:26;20.93;;;11.37;;
5847;SDS011;8756;49.29324300;8.70599800;2022-11-20T09:25:56;20.20;;;9.50;;
5847;SDS011;8756;49.29324300;8.70599800;2022-11-20T09:28:24;18.93;;;9.70;;
5847;SDS011;8756;49.29324300;8.70599800;2022-11-20T09:30:51;17.23;;;9.27;;
5847;SDS011;8756;49.29324300;8.70599800;2022-11-20T09:33:17;18.37;;;9.80;;
5847;SDS011;8756;49.29324300;8.70599800;2022-11-20T09:35:43;19.40;;;10.47;;
5847;SDS011;8756;49.29324300;8.70599800;2022-11-20T09:38:09;20.67;;;10.10;;
5847;SDS011;8756;49.29324300;8.70599800;2022-11-20T09:40:37;18.00;;;10.83;;
5847;SDS011;8756;49.29324300;8.70599800;2022-11-20T09:49:23;22.43;;;10.00;;
5847;SDS011;8756;49.29324300;8.70599800;2022-11-20T09:55:10;17.53;;;9.63;;
5847;SDS011;8756;49.29324300;8.70599800;2022-11-20T09:57:39;18.73;;;10.97;;
5847;SDS011;8756;49.29324300;8.70599800;2022-11-20T10:00:12;21.00;;;10.57;;
5847;SDS011;8756;49.29324300;8.70599800;2022-11-20T10:05:27;15.77;;;8.43;;
5847;SDS011;8756;49.29324300;8.70599800;2022-11-20T10:08:10;17.83;;;9.30;;
5847;SDS011;8756;49.29324300;8.70599800;2022-11-20T10:16:53;16.50;;;8.73;;
5847;SDS011;8756;49.29324300;8.70599800;2022-11-20T10:24:57;16.60;;;9.10;;
5847;SDS011;8756;49.29324300;8.70599800;2022-11-20T10:27:47;17.53;;;9.17;;
5847;SDS011;8756;49.29324300;8.70599800;2022-11-20T10:30:45;17.50;;;9.50;;
5847;SDS011;8756;49.29324300;8.70599800;2022-11-20T10:33:23;19.53;;;8.60;;
5847;SDS011;8756;49.29324300;8.70599800;2022-11-20T10:38:36;15.73;;;8.40;;
5847;SDS011;8756;49.29324300;8.70599800;2022-11-20T10:41:07;18.07;;;9.00;;
5847;SDS011;8756;49.29324300;8.70599800;2022-11-20T10:44:05;15.70;;;8.77;;
5847;SDS011;8756;49.29324300;8.70599800;2022-11-20T10:47:00;15.00;;;8.27;;
5847;SDS011;8756;49.29324300;8.70599800;2022-11-20T10:49:29;15.23;;;7.00;;
5847;SDS011;8756;49.29324300;8.70599800;2022-11-20T10:52:10;13.43;;;7.30;;
5847;SDS011;8756;49.29324300;8.70599800;2022-11-20T11:00:40;13.87;;;7.00;;
5847;SDS011;8756;49.29324300;8.70599800;2022-11-20T11:03:40;14.87;;;7.47;;
5847;SDS011;8756;49.29324300;8.70599800;2022-11-20T11:08:40;14.33;;;8.03;;
5847;SDS011;8756;49.29324300;8.70599800;2022-11-20T11:13:47;16.73;;;9.23;;
5847;SDS011;8756;49.29324300;8.70599800;2022-11-20T11:16:20;14.03;;;7.80;;
5847;SDS011;8756;49.29324300;8.70599800;2022-11-20T11:18:51;13.30;;;6.93;;
5847;SDS011;8756;49.29324300;8.70599800;2022-11-20T11:21:37;14.63;;;8.10;;
5847;SDS011;8756;49.29324300;8.70599800;2022-11-20T11:24:14;17.77;;;7.57;;
5847;SDS011;8756;49.29324300;8.70599800;2022-11-20T11:26:56;18.93;;;7.37;;
5847;SDS011;8756;49.29324300;8.70599800;2022-11-20T11:29:32;13.47;;;7.60;;
5847;SDS011;8756;49.29324300;8.70599800;2022-11-20T11:32:05;15.17;;;8.30;;
5847;SDS011;8756;49.29324300;8.70599800;2022-11-20T11:34:36;16.40;;;8.17;;
5847;SDS011;8756;49.29324300;8.70599800;2022-11-20T11:37:02;14.90;;;7.73;;
5847;SDS011;8756;49.29324300;8.70599800;2022-11-20T11:39:31;14.90;;;7.10;;
5847;SDS011;8756;49.29324300;8.70599800;2022-11-20T11:41:58;14.87;;;8.03;;
5847;SDS011;8756;49.29324300;8.70599800;2022-11-20T11:44:32;14.17;;;8.40;;
5847;SDS011;8756;49.29324300;8.70599800;2022-11-20T11:50:02;14.80;;;8.17;;
5847;SDS011;8756;49.29324300;8.70599800;2022-11-20T11:52:40;16.20;;;7.23;;
5847;SDS011;8756;49.29324300;8.70599800;2022-11-20T12:01:03;15.23;;;7.00;;
5847;SDS011;8756;49.29324300;8.70599800;2022-11-20T12:03:42;14.13;;;6.60;;
5847;SDS011;8756;49.29324300;8.70599800;2022-11-20T12:06:17;15.97;;;6.90;;
5847;SDS011;8756;49.29324300;8.70599800;2022-11-20T12:08:48;13.40;;;6.90;;
5847;SDS011;8756;49.29324300;8.70599800;2022-11-20T12:11:32;12.87;;;7.20;;
5847;SDS011;8756;49.29324300;8.70599800;2022-11-20T12:14:38;14.97;;;4.67;;
5847;SDS011;8756;49.29324300;8.70599800;2022-11-20T12:17:11;10.47;;;4.30;;
5847;SDS011;8756;49.29324300;8.70599800;2022-11-20T12:19:39;11.67;;;5.80;;
5847;SDS011;8756;49.29324300;8.70599800;2022-11-20T12:25:20;13.53;;;5.40;;
5847;SDS011;8756;49.29324300;8.70599800;2022-11-20T12:27:59;13.80;;;4.33;;
5847;SDS011;8756;49.29324300;8.70599800;2022-11-20T12:30:48;12.10;;;4.03;;
5847;SDS011;8756;49.29324300;8.70599800;2022-11-20T12:36:52;12.00;;;4.57;;
5847;SDS011;8756;49.29324300;8.70599800;2022-11-20T12:39:30;11.30;;;4.80;;
5847;SDS011;8756;49.29324300;8.70599800;2022-11-20T12:45:22;11.70;;;4.77;;
5847;SDS011;8756;49.29324300;8.70599800;2022-11-20T12:48:19;13.57;;;4.70;;
5847;SDS011;8756;49.29324300;8.70599800;2022-11-20T12:56:50;12.20;;;4.17;;
5847;SDS011;8756;49.29324300;8.70599800;2022-11-20T13:00:01;11.80;;;4.37;;
5847;SDS011;8756;49.29324300;8.70599800;2022-11-20T13:08:40;13.47;;;4.20;;
5847;SDS011;8756;49.29324300;8.70599800;2022-11-20T13:11:15;13.20;;;4.23;;
5847;SDS011;8756;49.29324300;8.70599800;2022-11-20T13:19:54;13.00;;;4.57;;
5847;SDS011;8756;49.29324300;8.70599800;2022-11-20T13:22:24;11.30;;;3.93;;
5847;SDS011;8756;49.29324300;8.70599800;2022-11-20T13:24:56;12.60;;;4.80;;
5847;SDS011;8756;49.29324300;8.70599800;2022-11-20T13:27:22;11.87;;;4.50;;
5847;SDS011;8756;49.29324300;8.70599800;2022-11-20T13:32:51;14.37;;;5.10;;
5847;SDS011;8756;49.29324300;8.70599800;2022-11-20T13:38:07;13.20;;;4.23;;
5847;SDS011;8756;49.29324300;8.70599800;2022-11-20T13:40:37;11.23;;;3.70;;
5847;SDS011;8756;49.29324300;8.70599800;2022-11-20T13:43:19;12.03;;;3.57;;
5847;SDS011;8756;49.29324300;8.70599800;2022-11-20T13:46:08;12.93;;;4.03;;
5847;SDS011;8756;49.29324300;8.70599800;2022-11-20T13:48:41;13.20;;;4.80;;
5847;SDS011;8756;49.29324300;8.70599800;2022-11-20T13:51:26;12.10;;;4.03;;
5847;SDS011;8756;49.29324300;8.70599800;2022-11-20T13:56:48;9.73;;;3.47;;
5847;SDS011;8756;49.29324300;8.70599800;2022-11-20T14:02:14;12.23;;;3.43;;
5847;SDS011;8756;49.29324300;8.70599800;2022-11-20T14:04:42;11.60;;;3.80;;
5847;SDS011;8756;49.29324300;8.70599800;2022-11-20T14:07:15;13.60;;;3.70;;
5847;SDS011;8756;49.29324300;8.70599800;2022-11-20T14:09:51;12.10;;;4.93;;
5847;SDS011;8756;49.29324300;8.70599800;2022-11-20T14:12:22;15.80;;;3.70;;
5847;SDS011;8756;49.29324300;8.70599800;2022-11-20T14:14:58;11.40;;;4.03;;
5847;SDS011;8756;49.29324300;8.70599800;2022-11-20T14:19:53;14.40;;;5.17;;
5847;SDS011;8756;49.29324300;8.70599800;2022-11-20T14:22:24;10.87;;;4.73;;
5847;SDS011;8756;49.29324300;8.70599800;2022-11-20T14:25:02;13.27;;;4.17;;
5847;SDS011;8756;49.29324300;8.70599800;2022-11-20T14:27:44;14.90;;;4.93;;
5847;SDS011;8756;49.29324300;8.70599800;2022-11-20T14:30:18;15.17;;;4.60;;
5847;SDS011;8756;49.29324300;8.70599800;2022-11-20T14:33:09;14.30;;;4.70;;
5847;SDS011;8756;49.29324300;8.70599800;2022-11-20T14:35:37;11.53;;;4.00;;
5847;SDS011;8756;49.29324300;8.70599800;2022-11-20T14:38:11;11.77;;;4.50;;
5847;SDS011;8756;49.29324300;8.70599800;2022-11-20T14:40:41;11.67;;;4.07;;
5847;SDS011;8756;49.29324300;8.70599800;2022-11-20T14:45:58;12.53;;;4.10;;
5847;SDS011;8756;49.29324300;8.70599800;2022-11-20T14:48:40;13.27;;;4.20;;